sensor_id;sensor_type;location;lat;lon;timestamp;temperature;humidity
18139;DHT22;9195;53.176;9.486;2022-08-25T00:01:55;19.60;93.60
18139;DHT22;9195;53.176;9.486;2022-08-25T00:04:22;19.50;93.70
18139;DHT22;9195;53.176;9.486;2022-08-25T00:06:48;19.60;93.90
18139;DHT22;9195;53.176;9.486;2022-08-25T00:09:16;19.50;94.10
18139;DHT22;9195;53.176;9.486;2022-08-25T00:11:43;19.50;94.20
18139;DHT22;9195;53.176;9.486;2022-08-25T00:14:18;19.40;94.40
18139;DHT22;9195;53.176;9.486;2022-08-25T00:16:44;19.40;94.70
18139;DHT22;9195;53.176;9.486;2022-08-25T00:19:13;19.40;94.90
18139;DHT22;9195;53.176;9.486;2022-08-25T00:21:41;19.40;95.10
18139;DHT22;9195;53.176;9.486;2022-08-25T00:24:08;19.30;95.40
18139;DHT22;9195;53.176;9.486;2022-08-25T00:26:36;19.30;95.60
18139;DHT22;9195;53.176;9.486;2022-08-25T00:29:03;19.30;95.90
18139;DHT22;9195;53.176;9.486;2022-08-25T00:31:28;19.20;96.00
18139;DHT22;9195;53.176;9.486;2022-08-25T00:33:54;19.20;96.30
18139;DHT22;9195;53.176;9.486;2022-08-25T00:36:20;19.20;96.60
18139;DHT22;9195;53.176;9.486;2022-08-25T00:38:46;19.10;96.70
18139;DHT22;9195;53.176;9.486;2022-08-25T00:41:15;19.10;97.00
18139;DHT22;9195;53.176;9.486;2022-08-25T00:43:59;19.10;97.10
18139;DHT22;9195;53.176;9.486;2022-08-25T00:46:37;19.10;97.40
18139;DHT22;9195;53.176;9.486;2022-08-25T00:49:13;19.00;97.50
18139;DHT22;9195;53.176;9.486;2022-08-25T00:51:43;19.00;97.70
18139;DHT22;9195;53.176;9.486;2022-08-25T00:54:18;18.90;97.90
18139;DHT22;9195;53.176;9.486;2022-08-25T00:56:45;19.00;98.10
18139;DHT22;9195;53.176;9.486;2022-08-25T00:59:12;18.90;98.20
18139;DHT22;9195;53.176;9.486;2022-08-25T01:01:38;18.90;98.50
18139;DHT22;9195;53.176;9.486;2022-08-25T01:04:03;18.90;98.80
18139;DHT22;9195;53.176;9.486;2022-08-25T01:06:31;18.80;98.80
18139;DHT22;9195;53.176;9.486;2022-08-25T01:08:58;18.90;99.10
18139;DHT22;9195;53.176;9.486;2022-08-25T01:11:23;18.80;99.40
18139;DHT22;9195;53.176;9.486;2022-08-25T01:13:54;18.80;99.70
18139;DHT22;9195;53.176;9.486;2022-08-25T01:16:21;18.80;99.90
18139;DHT22;9195;53.176;9.486;2022-08-25T01:18:50;18.80;99.90
18139;DHT22;9195;53.176;9.486;2022-08-25T01:21:19;18.80;99.90
18139;DHT22;9195;53.176;9.486;2022-08-25T01:23:46;18.70;99.90
18139;DHT22;9195;53.176;9.486;2022-08-25T01:26:20;18.80;99.90
18139;DHT22;9195;53.176;9.486;2022-08-25T01:28:48;18.70;99.90
18139;DHT22;9195;53.176;9.486;2022-08-25T01:31:33;18.70;99.90
18139;DHT22;9195;53.176;9.486;2022-08-25T01:33:59;18.70;99.90
18139;DHT22;9195;53.176;9.486;2022-08-25T01:36:25;18.70;99.90
18139;DHT22;9195;53.176;9.486;2022-08-25T01:38:52;18.70;99.90
18139;DHT22;9195;53.176;9.486;2022-08-25T01:43:59;18.70;99.90
18139;DHT22;9195;53.176;9.486;2022-08-25T01:46:25;18.70;99.90
18139;DHT22;9195;53.176;9.486;2022-08-25T01:48:51;18.70;99.90
18139;DHT22;9195;53.176;9.486;2022-08-25T01:51:20;18.70;99.90
18139;DHT22;9195;53.176;9.486;2022-08-25T01:53:47;18.70;99.90
18139;DHT22;9195;53.176;9.486;2022-08-25T01:56:15;18.70;99.90
18139;DHT22;9195;53.176;9.486;2022-08-25T01:58:43;18.60;99.90
18139;DHT22;9195;53.176;9.486;2022-08-25T02:01:12;18.60;99.90
18139;DHT22;9195;53.176;9.486;2022-08-25T02:03:42;18.60;99.90
18139;DHT22;9195;53.176;9.486;2022-08-25T02:06:12;18.60;99.90
18139;DHT22;9195;53.176;9.486;2022-08-25T02:08:37;18.60;99.90
18139;DHT22;9195;53.176;9.486;2022-08-25T02:11:03;18.60;99.90
18139;DHT22;9195;53.176;9.486;2022-08-25T02:13:29;18.60;99.90
18139;DHT22;9195;53.176;9.486;2022-08-25T02:15:57;18.60;99.90
18139;DHT22;9195;53.176;9.486;2022-08-25T02:18:24;18.60;99.90
18139;DHT22;9195;53.176;9.486;2022-08-25T02:20:49;18.50;99.90
18139;DHT22;9195;53.176;9.486;2022-08-25T02:23:15;18.50;99.90
18139;DHT22;9195;53.176;9.486;2022-08-25T02:25:42;18.50;99.90
18139;DHT22;9195;53.176;9.486;2022-08-25T02:28:09;18.50;99.90
18139;DHT22;9195;53.176;9.486;2022-08-25T02:30:36;18.50;99.90
18139;DHT22;9195;53.176;9.486;2022-08-25T02:33:02;18.40;99.90
18139;DHT22;9195;53.176;9.486;2022-08-25T02:35:28;18.40;99.90
18139;DHT22;9195;53.176;9.486;2022-08-25T02:37:56;18.40;99.90
18139;DHT22;9195;53.176;9.486;2022-08-25T02:40:21;18.40;99.90
18139;DHT22;9195;53.176;9.486;2022-08-25T02:42:48;18.40;99.90
18139;DHT22;9195;53.176;9.486;2022-08-25T02:45:14;18.40;99.90
18139;DHT22;9195;53.176;9.486;2022-08-25T02:47:40;18.30;99.90
18139;DHT22;9195;53.176;9.486;2022-08-25T02:50:07;18.30;99.90
18139;DHT22;9195;53.176;9.486;2022-08-25T02:52:33;18.30;99.90
18139;DHT22;9195;53.176;9.486;2022-08-25T02:55:00;18.20;99.90
18139;DHT22;9195;53.176;9.486;2022-08-25T02:57:28;18.20;99.90
18139;DHT22;9195;53.176;9.486;2022-08-25T02:59:54;18.20;99.90
18139;DHT22;9195;53.176;9.486;2022-08-25T03:02:19;18.20;99.90
18139;DHT22;9195;53.176;9.486;2022-08-25T03:04:45;18.20;99.90
18139;DHT22;9195;53.176;9.486;2022-08-25T03:07:11;18.20;99.90
18139;DHT22;9195;53.176;9.486;2022-08-25T03:09:37;18.10;99.90
18139;DHT22;9195;53.176;9.486;2022-08-25T03:12:04;18.20;99.90
18139;DHT22;9195;53.176;9.486;2022-08-25T03:14:29;18.20;99.90
18139;DHT22;9195;53.176;9.486;2022-08-25T03:16:56;18.20;99.90
18139;DHT22;9195;53.176;9.486;2022-08-25T03:19:21;18.10;99.90
18139;DHT22;9195;53.176;9.486;2022-08-25T03:21:48;18.10;99.90
18139;DHT22;9195;53.176;9.486;2022-08-25T03:24:16;18.20;99.90
18139;DHT22;9195;53.176;9.486;2022-08-25T03:26:42;18.10;99.90
18139;DHT22;9195;53.176;9.486;2022-08-25T03:29:31;18.10;99.90
18139;DHT22;9195;53.176;9.486;2022-08-25T03:31:58;18.10;99.90
18139;DHT22;9195;53.176;9.486;2022-08-25T03:34:26;18.00;99.90
18139;DHT22;9195;53.176;9.486;2022-08-25T03:36:53;18.00;99.90
18139;DHT22;9195;53.176;9.486;2022-08-25T03:39:20;18.00;99.90
18139;DHT22;9195;53.176;9.486;2022-08-25T03:41:46;18.00;99.90
18139;DHT22;9195;53.176;9.486;2022-08-25T03:44:13;18.00;99.90
18139;DHT22;9195;53.176;9.486;2022-08-25T03:46:44;18.00;99.90
18139;DHT22;9195;53.176;9.486;2022-08-25T03:49:15;18.00;99.90
18139;DHT22;9195;53.176;9.486;2022-08-25T03:51:47;17.90;99.90
18139;DHT22;9195;53.176;9.486;2022-08-25T03:54:15;17.90;99.90
18139;DHT22;9195;53.176;9.486;2022-08-25T03:56:41;17.90;99.90
18139;DHT22;9195;53.176;9.486;2022-08-25T03:59:08;17.90;99.90
18139;DHT22;9195;53.176;9.486;2022-08-25T04:01:35;17.90;99.90
18139;DHT22;9195;53.176;9.486;2022-08-25T04:04:01;17.90;99.90
18139;DHT22;9195;53.176;9.486;2022-08-25T04:06:27;17.90;99.90
18139;DHT22;9195;53.176;9.486;2022-08-25T04:08:53;17.80;99.90
18139;DHT22;9195;53.176;9.486;2022-08-25T04:11:21;17.80;99.90
18139;DHT22;9195;53.176;9.486;2022-08-25T04:13:47;17.80;99.90
18139;DHT22;9195;53.176;9.486;2022-08-25T04:16:16;17.80;99.90
18139;DHT22;9195;53.176;9.486;2022-08-25T04:18:44;17.70;99.90
18139;DHT22;9195;53.176;9.486;2022-08-25T04:21:11;17.70;99.90
18139;DHT22;9195;53.176;9.486;2022-08-25T04:23:38;17.70;99.90
18139;DHT22;9195;53.176;9.486;2022-08-25T04:26:14;17.70;99.90
18139;DHT22;9195;53.176;9.486;2022-08-25T04:28:39;17.70;99.90
18139;DHT22;9195;53.176;9.486;2022-08-25T04:31:10;17.70;99.90
18139;DHT22;9195;53.176;9.486;2022-08-25T04:33:37;17.70;99.90
18139;DHT22;9195;53.176;9.486;2022-08-25T04:36:04;17.60;99.90
18139;DHT22;9195;53.176;9.486;2022-08-25T04:38:30;17.70;99.90
18139;DHT22;9195;53.176;9.486;2022-08-25T04:41:01;17.70;99.90
18139;DHT22;9195;53.176;9.486;2022-08-25T04:43:28;17.70;99.90
18139;DHT22;9195;53.176;9.486;2022-08-25T04:45:54;17.60;99.90
18139;DHT22;9195;53.176;9.486;2022-08-25T04:48:21;17.60;99.90
18139;DHT22;9195;53.176;9.486;2022-08-25T04:50:47;17.60;99.90
18139;DHT22;9195;53.176;9.486;2022-08-25T04:53:13;17.60;99.90
18139;DHT22;9195;53.176;9.486;2022-08-25T04:55:44;17.60;99.90
18139;DHT22;9195;53.176;9.486;2022-08-25T04:58:10;17.60;99.90
18139;DHT22;9195;53.176;9.486;2022-08-25T05:00:37;17.60;99.90
18139;DHT22;9195;53.176;9.486;2022-08-25T05:03:03;17.70;99.90
18139;DHT22;9195;53.176;9.486;2022-08-25T05:05:30;17.70;99.90
18139;DHT22;9195;53.176;9.486;2022-08-25T05:07:56;17.70;99.90
18139;DHT22;9195;53.176;9.486;2022-08-25T05:10:22;17.80;99.90
18139;DHT22;9195;53.176;9.486;2022-08-25T05:12:48;17.80;99.90
18139;DHT22;9195;53.176;9.486;2022-08-25T05:15:14;17.80;99.90
18139;DHT22;9195;53.176;9.486;2022-08-25T05:17:58;17.90;99.90
18139;DHT22;9195;53.176;9.486;2022-08-25T05:20:24;17.90;99.90
18139;DHT22;9195;53.176;9.486;2022-08-25T05:22:50;17.90;99.90
18139;DHT22;9195;53.176;9.486;2022-08-25T05:25:15;17.90;99.90
18139;DHT22;9195;53.176;9.486;2022-08-25T05:27:42;18.00;99.90
18139;DHT22;9195;53.176;9.486;2022-08-25T05:30:11;18.00;99.90
18139;DHT22;9195;53.176;9.486;2022-08-25T05:32:37;18.00;99.90
18139;DHT22;9195;53.176;9.486;2022-08-25T05:35:04;18.10;99.90
18139;DHT22;9195;53.176;9.486;2022-08-25T05:37:30;18.10;99.90
18139;DHT22;9195;53.176;9.486;2022-08-25T05:39:56;18.10;99.90
18139;DHT22;9195;53.176;9.486;2022-08-25T05:42:23;18.20;99.90
18139;DHT22;9195;53.176;9.486;2022-08-25T05:44:48;18.20;99.90
18139;DHT22;9195;53.176;9.486;2022-08-25T05:47:15;18.20;99.90
18139;DHT22;9195;53.176;9.486;2022-08-25T05:49:41;18.20;99.90
18139;DHT22;9195;53.176;9.486;2022-08-25T05:52:06;18.30;99.90
18139;DHT22;9195;53.176;9.486;2022-08-25T05:54:32;18.30;99.90
18139;DHT22;9195;53.176;9.486;2022-08-25T05:56:58;18.30;99.90
18139;DHT22;9195;53.176;9.486;2022-08-25T05:59:25;18.40;99.90
18139;DHT22;9195;53.176;9.486;2022-08-25T06:01:51;18.50;99.90
18139;DHT22;9195;53.176;9.486;2022-08-25T06:04:35;18.50;99.90
18139;DHT22;9195;53.176;9.486;2022-08-25T06:07:01;18.60;99.90
18139;DHT22;9195;53.176;9.486;2022-08-25T06:09:26;18.70;99.90
18139;DHT22;9195;53.176;9.486;2022-08-25T06:11:52;18.80;99.90
18139;DHT22;9195;53.176;9.486;2022-08-25T06:14:19;18.80;99.90
18139;DHT22;9195;53.176;9.486;2022-08-25T06:16:44;18.80;99.90
18139;DHT22;9195;53.176;9.486;2022-08-25T06:19:13;19.00;99.90
18139;DHT22;9195;53.176;9.486;2022-08-25T06:21:39;19.00;99.90
18139;DHT22;9195;53.176;9.486;2022-08-25T06:24:06;19.10;99.90
18139;DHT22;9195;53.176;9.486;2022-08-25T06:26:31;19.20;99.90
18139;DHT22;9195;53.176;9.486;2022-08-25T06:28:57;19.30;99.90
18139;DHT22;9195;53.176;9.486;2022-08-25T06:31:23;19.40;99.90
18139;DHT22;9195;53.176;9.486;2022-08-25T06:33:49;19.50;99.90
18139;DHT22;9195;53.176;9.486;2022-08-25T06:36:16;19.60;99.90
18139;DHT22;9195;53.176;9.486;2022-08-25T06:38:42;19.70;99.90
18139;DHT22;9195;53.176;9.486;2022-08-25T06:41:08;19.80;99.90
18139;DHT22;9195;53.176;9.486;2022-08-25T06:43:38;19.90;99.90
18139;DHT22;9195;53.176;9.486;2022-08-25T06:46:13;20.00;99.90
18139;DHT22;9195;53.176;9.486;2022-08-25T06:48:40;20.10;99.90
18139;DHT22;9195;53.176;9.486;2022-08-25T06:51:07;20.20;99.90
18139;DHT22;9195;53.176;9.486;2022-08-25T06:53:34;20.30;99.90
18139;DHT22;9195;53.176;9.486;2022-08-25T06:56:00;20.40;99.90
18139;DHT22;9195;53.176;9.486;2022-08-25T06:58:26;20.50;99.90
18139;DHT22;9195;53.176;9.486;2022-08-25T07:00:52;20.60;99.90
18139;DHT22;9195;53.176;9.486;2022-08-25T07:03:18;20.70;99.90
18139;DHT22;9195;53.176;9.486;2022-08-25T07:05:54;20.80;99.90
18139;DHT22;9195;53.176;9.486;2022-08-25T07:08:20;21.00;99.90
18139;DHT22;9195;53.176;9.486;2022-08-25T07:10:47;21.20;99.90
18139;DHT22;9195;53.176;9.486;2022-08-25T07:13:13;21.30;99.90
18139;DHT22;9195;53.176;9.486;2022-08-25T07:15:40;21.40;99.90
18139;DHT22;9195;53.176;9.486;2022-08-25T07:18:07;21.50;99.90
18139;DHT22;9195;53.176;9.486;2022-08-25T07:20:36;21.60;99.90
18139;DHT22;9195;53.176;9.486;2022-08-25T07:23:02;21.70;99.90
18139;DHT22;9195;53.176;9.486;2022-08-25T07:25:28;21.80;99.90
18139;DHT22;9195;53.176;9.486;2022-08-25T07:27:54;21.90;99.90
18139;DHT22;9195;53.176;9.486;2022-08-25T07:30:20;22.10;99.90
18139;DHT22;9195;53.176;9.486;2022-08-25T07:32:45;22.20;99.90
18139;DHT22;9195;53.176;9.486;2022-08-25T07:35:11;22.20;99.90
18139;DHT22;9195;53.176;9.486;2022-08-25T07:37:51;22.30;99.90
18139;DHT22;9195;53.176;9.486;2022-08-25T07:40:20;22.40;99.90
18139;DHT22;9195;53.176;9.486;2022-08-25T07:42:48;22.60;99.90
18139;DHT22;9195;53.176;9.486;2022-08-25T07:45:14;22.60;99.90
18139;DHT22;9195;53.176;9.486;2022-08-25T07:47:40;22.70;99.90
18139;DHT22;9195;53.176;9.486;2022-08-25T07:50:07;22.80;99.90
18139;DHT22;9195;53.176;9.486;2022-08-25T07:52:34;22.90;99.90
18139;DHT22;9195;53.176;9.486;2022-08-25T07:55:00;23.10;99.90
18139;DHT22;9195;53.176;9.486;2022-08-25T07:57:27;23.20;99.90
18139;DHT22;9195;53.176;9.486;2022-08-25T07:59:54;23.30;99.90
18139;DHT22;9195;53.176;9.486;2022-08-25T08:02:20;23.40;99.90
18139;DHT22;9195;53.176;9.486;2022-08-25T08:04:48;23.50;99.90
18139;DHT22;9195;53.176;9.486;2022-08-25T08:07:19;23.60;99.90
18139;DHT22;9195;53.176;9.486;2022-08-25T08:09:46;23.70;99.90
18139;DHT22;9195;53.176;9.486;2022-08-25T08:12:12;23.80;99.90
18139;DHT22;9195;53.176;9.486;2022-08-25T08:14:38;23.90;99.90
18139;DHT22;9195;53.176;9.486;2022-08-25T08:17:07;24.00;99.90
18139;DHT22;9195;53.176;9.486;2022-08-25T08:19:34;24.10;99.90
18139;DHT22;9195;53.176;9.486;2022-08-25T08:22:01;24.20;99.90
18139;DHT22;9195;53.176;9.486;2022-08-25T08:24:32;24.40;99.90
18139;DHT22;9195;53.176;9.486;2022-08-25T08:27:04;24.50;99.90
18139;DHT22;9195;53.176;9.486;2022-08-25T08:29:30;24.60;99.90
18139;DHT22;9195;53.176;9.486;2022-08-25T08:31:57;24.70;99.90
18139;DHT22;9195;53.176;9.486;2022-08-25T08:34:22;24.90;99.90
18139;DHT22;9195;53.176;9.486;2022-08-25T08:36:48;25.00;99.90
18139;DHT22;9195;53.176;9.486;2022-08-25T08:39:14;25.10;99.90
18139;DHT22;9195;53.176;9.486;2022-08-25T08:42:01;25.20;99.90
18139;DHT22;9195;53.176;9.486;2022-08-25T08:45:01;25.40;99.90
18139;DHT22;9195;53.176;9.486;2022-08-25T08:47:57;25.50;99.90
18139;DHT22;9195;53.176;9.486;2022-08-25T08:53:31;25.70;99.90
18139;DHT22;9195;53.176;9.486;2022-08-25T08:56:04;25.70;99.90
18139;DHT22;9195;53.176;9.486;2022-08-25T08:58:44;25.80;99.90
18139;DHT22;9195;53.176;9.486;2022-08-25T09:01:16;25.90;99.90
18139;DHT22;9195;53.176;9.486;2022-08-25T09:03:51;26.00;99.90
18139;DHT22;9195;53.176;9.486;2022-08-25T09:06:43;26.10;99.90
18139;DHT22;9195;53.176;9.486;2022-08-25T09:09:11;26.30;99.90
18139;DHT22;9195;53.176;9.486;2022-08-25T09:16:59;26.70;99.90
18139;DHT22;9195;53.176;9.486;2022-08-25T09:22:29;27.00;99.90
18139;DHT22;9195;53.176;9.486;2022-08-25T09:28:02;27.00;99.90
18139;DHT22;9195;53.176;9.486;2022-08-25T09:30:53;27.20;99.90
18139;DHT22;9195;53.176;9.486;2022-08-25T09:33:21;27.40;99.90
18139;DHT22;9195;53.176;9.486;2022-08-25T09:35:49;27.30;99.90
18139;DHT22;9195;53.176;9.486;2022-08-25T09:38:15;27.20;99.90
18139;DHT22;9195;53.176;9.486;2022-08-25T09:40:47;27.40;99.90
18139;DHT22;9195;53.176;9.486;2022-08-25T09:43:28;27.40;99.90
18139;DHT22;9195;53.176;9.486;2022-08-25T09:46:15;27.30;99.90
18139;DHT22;9195;53.176;9.486;2022-08-25T09:48:50;27.10;99.90
18139;DHT22;9195;53.176;9.486;2022-08-25T09:51:32;27.00;99.90
18139;DHT22;9195;53.176;9.486;2022-08-25T09:56:58;27.00;99.90
18139;DHT22;9195;53.176;9.486;2022-08-25T10:01:57;27.40;99.90
18139;DHT22;9195;53.176;9.486;2022-08-25T10:04:44;27.60;99.90
18139;DHT22;9195;53.176;9.486;2022-08-25T10:07:26;28.00;99.90
18139;DHT22;9195;53.176;9.486;2022-08-25T10:10:01;28.30;99.90
18139;DHT22;9195;53.176;9.486;2022-08-25T10:12:41;28.40;99.90
18139;DHT22;9195;53.176;9.486;2022-08-25T10:17:41;28.20;99.90
18139;DHT22;9195;53.176;9.486;2022-08-25T10:22:38;28.30;99.90
18139;DHT22;9195;53.176;9.486;2022-08-25T10:25:06;28.20;99.90
18139;DHT22;9195;53.176;9.486;2022-08-25T10:28:17;28.40;99.90
18139;DHT22;9195;53.176;9.486;2022-08-25T10:31:26;28.70;99.90
18139;DHT22;9195;53.176;9.486;2022-08-25T10:36:13;28.20;99.90
18139;DHT22;9195;53.176;9.486;2022-08-25T10:38:43;28.20;99.90
18139;DHT22;9195;53.176;9.486;2022-08-25T10:52:54;28.60;99.40
18139;DHT22;9195;53.176;9.486;2022-08-25T11:05:01;29.60;97.50
18139;DHT22;9195;53.176;9.486;2022-08-25T11:07:32;29.90;96.90
18139;DHT22;9195;53.176;9.486;2022-08-25T11:10:08;30.00;96.70
18139;DHT22;9195;53.176;9.486;2022-08-25T11:12:43;30.20;96.30
18139;DHT22;9195;53.176;9.486;2022-08-25T11:15:28;30.30;95.90
18139;DHT22;9195;53.176;9.486;2022-08-25T11:17:58;30.10;95.80
18139;DHT22;9195;53.176;9.486;2022-08-25T11:20:58;30.20;95.40
18139;DHT22;9195;53.176;9.486;2022-08-25T11:26:16;30.20;95.10
18139;DHT22;9195;53.176;9.486;2022-08-25T11:31:20;30.10;94.30
18139;DHT22;9195;53.176;9.486;2022-08-25T11:33:49;30.10;94.50
18139;DHT22;9195;53.176;9.486;2022-08-25T11:49:50;31.30;92.80
18139;DHT22;9195;53.176;9.486;2022-08-25T11:55:18;31.30;91.90
18139;DHT22;9195;53.176;9.486;2022-08-25T11:57:47;31.30;91.30
18139;DHT22;9195;53.176;9.486;2022-08-25T12:00:34;31.40;91.10
18139;DHT22;9195;53.176;9.486;2022-08-25T12:14:33;31.70;89.90
18139;DHT22;9195;53.176;9.486;2022-08-25T12:17:20;31.70;89.50
18139;DHT22;9195;53.176;9.486;2022-08-25T12:19:50;31.70;89.70
18139;DHT22;9195;53.176;9.486;2022-08-25T12:24:57;31.70;89.80
18139;DHT22;9195;53.176;9.486;2022-08-25T12:27:31;31.90;89.40
18139;DHT22;9195;53.176;9.486;2022-08-25T12:30:22;32.40;88.50
18139;DHT22;9195;53.176;9.486;2022-08-25T12:32:59;32.60;88.50
18139;DHT22;9195;53.176;9.486;2022-08-25T12:35:31;32.90;87.10
18139;DHT22;9195;53.176;9.486;2022-08-25T12:40:34;34.70;82.10
18139;DHT22;9195;53.176;9.486;2022-08-25T12:43:12;35.60;79.00
18139;DHT22;9195;53.176;9.486;2022-08-25T12:45:51;36.70;76.40
18139;DHT22;9195;53.176;9.486;2022-08-25T12:50:57;37.30;73.10
18139;DHT22;9195;53.176;9.486;2022-08-25T12:53:45;36.30;74.80
18139;DHT22;9195;53.176;9.486;2022-08-25T13:02:00;39.20;71.20
18139;DHT22;9195;53.176;9.486;2022-08-25T13:15:42;47.00;53.30
18139;DHT22;9195;53.176;9.486;2022-08-25T13:20:41;48.70;50.50
18139;DHT22;9195;53.176;9.486;2022-08-25T13:23:07;49.70;49.00
18139;DHT22;9195;53.176;9.486;2022-08-25T13:25:36;51.10;48.10
18139;DHT22;9195;53.176;9.486;2022-08-25T13:28:20;47.80;48.20
18139;DHT22;9195;53.176;9.486;2022-08-25T13:30:55;46.40;50.50
18139;DHT22;9195;53.176;9.486;2022-08-25T13:33:22;44.50;51.90
18139;DHT22;9195;53.176;9.486;2022-08-25T13:35:53;45.90;52.40
18139;DHT22;9195;53.176;9.486;2022-08-25T13:38:38;48.00;50.30
18139;DHT22;9195;53.176;9.486;2022-08-25T13:41:05;49.40;48.80
18139;DHT22;9195;53.176;9.486;2022-08-25T13:43:31;50.30;47.00
18139;DHT22;9195;53.176;9.486;2022-08-25T13:45:57;51.90;45.50
18139;DHT22;9195;53.176;9.486;2022-08-25T13:48:38;52.40;45.00
18139;DHT22;9195;53.176;9.486;2022-08-25T13:51:25;51.50;44.90
18139;DHT22;9195;53.176;9.486;2022-08-25T13:53:56;51.90;44.50
18139;DHT22;9195;53.176;9.486;2022-08-25T13:56:41;52.00;44.70
18139;DHT22;9195;53.176;9.486;2022-08-25T13:59:23;53.40;43.10
18139;DHT22;9195;53.176;9.486;2022-08-25T14:01:52;54.10;42.30
18139;DHT22;9195;53.176;9.486;2022-08-25T14:06:45;55.70;41.00
18139;DHT22;9195;53.176;9.486;2022-08-25T14:09:14;56.10;40.10
18139;DHT22;9195;53.176;9.486;2022-08-25T14:12:24;56.30;40.10
18139;DHT22;9195;53.176;9.486;2022-08-25T14:14:33;51.70;41.60
18139;DHT22;9195;53.176;9.486;2022-08-25T14:17:05;53.60;42.00
18139;DHT22;9195;53.176;9.486;2022-08-25T14:19:32;54.40;41.10
18139;DHT22;9195;53.176;9.486;2022-08-25T14:21:59;55.40;40.90
18139;DHT22;9195;53.176;9.486;2022-08-25T14:24:30;55.70;40.30
18139;DHT22;9195;53.176;9.486;2022-08-25T14:26:56;55.20;40.70
18139;DHT22;9195;53.176;9.486;2022-08-25T14:29:22;55.30;40.10
18139;DHT22;9195;53.176;9.486;2022-08-25T14:31:48;54.30;41.20
18139;DHT22;9195;53.176;9.486;2022-08-25T14:34:16;53.70;41.70
18139;DHT22;9195;53.176;9.486;2022-08-25T14:36:43;54.00;40.70
18139;DHT22;9195;53.176;9.486;2022-08-25T14:39:10;53.70;40.70
18139;DHT22;9195;53.176;9.486;2022-08-25T14:41:37;53.80;41.30
18139;DHT22;9195;53.176;9.486;2022-08-25T14:44:05;53.00;41.70
18139;DHT22;9195;53.176;9.486;2022-08-25T14:46:34;53.10;41.40
18139;DHT22;9195;53.176;9.486;2022-08-25T14:49:03;53.10;41.10
18139;DHT22;9195;53.176;9.486;2022-08-25T14:51:31;53.40;41.00
18139;DHT22;9195;53.176;9.486;2022-08-25T14:54:00;53.30;41.30
18139;DHT22;9195;53.176;9.486;2022-08-25T14:56:27;53.20;41.50
18139;DHT22;9195;53.176;9.486;2022-08-25T14:58:53;52.20;41.50
18139;DHT22;9195;53.176;9.486;2022-08-25T15:01:20;51.30;42.20
18139;DHT22;9195;53.176;9.486;2022-08-25T15:03:47;48.50;43.60
18139;DHT22;9195;53.176;9.486;2022-08-25T15:06:15;47.60;44.60
18139;DHT22;9195;53.176;9.486;2022-08-25T15:08:42;47.60;45.00
18139;DHT22;9195;53.176;9.486;2022-08-25T15:11:26;47.70;44.60
18139;DHT22;9195;53.176;9.486;2022-08-25T15:13:53;46.60;46.50
18139;DHT22;9195;53.176;9.486;2022-08-25T15:17:07;46.80;47.50
18139;DHT22;9195;53.176;9.486;2022-08-25T15:19:26;49.50;45.10
18139;DHT22;9195;53.176;9.486;2022-08-25T15:21:52;50.00;44.00
18139;DHT22;9195;53.176;9.486;2022-08-25T15:24:19;51.60;43.00
18139;DHT22;9195;53.176;9.486;2022-08-25T15:26:58;52.10;42.50
18139;DHT22;9195;53.176;9.486;2022-08-25T15:29:25;52.50;42.00
18139;DHT22;9195;53.176;9.486;2022-08-25T15:31:54;53.00;41.50
18139;DHT22;9195;53.176;9.486;2022-08-25T15:34:19;53.50;41.00
18139;DHT22;9195;53.176;9.486;2022-08-25T15:36:45;53.90;40.50
18139;DHT22;9195;53.176;9.486;2022-08-25T15:39:11;54.60;40.30
18139;DHT22;9195;53.176;9.486;2022-08-25T15:41:37;54.70;40.50
18139;DHT22;9195;53.176;9.486;2022-08-25T15:44:04;51.10;42.00
18139;DHT22;9195;53.176;9.486;2022-08-25T15:46:31;51.80;42.30
18139;DHT22;9195;53.176;9.486;2022-08-25T15:48:57;52.40;41.50
18139;DHT22;9195;53.176;9.486;2022-08-25T15:51:25;52.20;41.50
18139;DHT22;9195;53.176;9.486;2022-08-25T15:53:50;49.90;43.10
18139;DHT22;9195;53.176;9.486;2022-08-25T15:56:16;50.90;43.20
18139;DHT22;9195;53.176;9.486;2022-08-25T15:58:44;51.20;42.10
18139;DHT22;9195;53.176;9.486;2022-08-25T16:01:13;51.30;42.60
18139;DHT22;9195;53.176;9.486;2022-08-25T16:03:39;51.60;42.40
18139;DHT22;9195;53.176;9.486;2022-08-25T16:06:04;52.10;42.30
18139;DHT22;9195;53.176;9.486;2022-08-25T16:08:30;52.10;41.50
18139;DHT22;9195;53.176;9.486;2022-08-25T16:10:56;52.40;41.60
18139;DHT22;9195;53.176;9.486;2022-08-25T16:13:21;52.50;41.40
18139;DHT22;9195;53.176;9.486;2022-08-25T16:15:48;52.80;41.40
18139;DHT22;9195;53.176;9.486;2022-08-25T16:18:15;52.60;41.10
18139;DHT22;9195;53.176;9.486;2022-08-25T16:20:46;52.80;41.10
18139;DHT22;9195;53.176;9.486;2022-08-25T16:23:12;52.80;41.10
18139;DHT22;9195;53.176;9.486;2022-08-25T16:25:40;52.60;41.20
18139;DHT22;9195;53.176;9.486;2022-08-25T16:28:07;51.90;41.40
18139;DHT22;9195;53.176;9.486;2022-08-25T16:30:33;51.00;42.60
18139;DHT22;9195;53.176;9.486;2022-08-25T16:32:58;49.70;43.40
18139;DHT22;9195;53.176;9.486;2022-08-25T16:35:24;46.80;45.70
18139;DHT22;9195;53.176;9.486;2022-08-25T16:37:50;43.80;48.50
18139;DHT22;9195;53.176;9.486;2022-08-25T16:40:16;41.90;50.80
18139;DHT22;9195;53.176;9.486;2022-08-25T16:42:43;40.30;53.40
18139;DHT22;9195;53.176;9.486;2022-08-25T16:45:10;39.00;55.90
18139;DHT22;9195;53.176;9.486;2022-08-25T16:47:36;37.50;57.60
18139;DHT22;9195;53.176;9.486;2022-08-25T16:50:06;36.50;59.60
18139;DHT22;9195;53.176;9.486;2022-08-25T16:52:33;35.70;61.70
18139;DHT22;9195;53.176;9.486;2022-08-25T16:55:18;34.90;63.60
18139;DHT22;9195;53.176;9.486;2022-08-25T16:57:47;34.10;65.10
18139;DHT22;9195;53.176;9.486;2022-08-25T17:00:17;33.50;66.80
18139;DHT22;9195;53.176;9.486;2022-08-25T17:02:43;32.90;68.30
18139;DHT22;9195;53.176;9.486;2022-08-25T17:05:09;32.50;69.60
18139;DHT22;9195;53.176;9.486;2022-08-25T17:07:36;32.10;70.20
18139;DHT22;9195;53.176;9.486;2022-08-25T17:10:03;31.90;71.60
18139;DHT22;9195;53.176;9.486;2022-08-25T17:12:29;31.50;72.40
18139;DHT22;9195;53.176;9.486;2022-08-25T17:14:55;31.40;73.20
18139;DHT22;9195;53.176;9.486;2022-08-25T17:17:20;31.20;74.00
18139;DHT22;9195;53.176;9.486;2022-08-25T17:19:46;30.90;74.30
18139;DHT22;9195;53.176;9.486;2022-08-25T17:22:12;30.70;75.30
18139;DHT22;9195;53.176;9.486;2022-08-25T17:24:43;30.50;76.10
18139;DHT22;9195;53.176;9.486;2022-08-25T17:27:09;30.30;76.80
18139;DHT22;9195;53.176;9.486;2022-08-25T17:29:35;30.20;77.40
18139;DHT22;9195;53.176;9.486;2022-08-25T17:32:01;30.00;77.70
18139;DHT22;9195;53.176;9.486;2022-08-25T17:34:27;30.00;77.90
18139;DHT22;9195;53.176;9.486;2022-08-25T17:36:54;29.70;78.40
18139;DHT22;9195;53.176;9.486;2022-08-25T17:39:20;29.50;79.40
18139;DHT22;9195;53.176;9.486;2022-08-25T17:41:47;29.30;80.00
18139;DHT22;9195;53.176;9.486;2022-08-25T17:44:13;29.20;80.60
18139;DHT22;9195;53.176;9.486;2022-08-25T17:46:40;29.00;81.30
18139;DHT22;9195;53.176;9.486;2022-08-25T17:49:06;28.90;81.70
18139;DHT22;9195;53.176;9.486;2022-08-25T17:51:32;28.70;82.30
18139;DHT22;9195;53.176;9.486;2022-08-25T17:53:58;28.60;82.80